EGPK/PIK METAR and TAF weather

Enter ICAO airport designator
Station Type Date Time Source
EGPK METAR 2018/01/16 09:20 UTC NOAA

EGPK 160920Z 28015KT 6000 VCSH FEW008 SCT015CB 03/01 Q0985 RESHSN


Station Type Date Time Source
EGPK Decoded METAR 2018/01/16 09:20 UTC NOAA

Prestwick Airport, United Kingdom (EGPK) 55-30N 004-35W 0M
Jan 16, 2018 - 04:20 AM EST / 2018.01.16 0920 UTC
Wind: from the W (280 degrees) at 17 MPH (15 KT):0
Visibility: 3 mile(s):0
Sky conditions: partly cloudy
Weather: showers in the vicinity; Cumulonimbus clouds observed
Temperature: 37 F (3 C)
Dew Point: 33 F (1 C)
Relative Humidity: 86%
Pressure (altimeter): 29.09 in. Hg (0985 hPa)
ob: EGPK 160920Z 28015KT 6000 VCSH FEW008 SCT015CB 03/01 Q0985 RESHSN
cycle: 9

Station Type Date Time Source
EGPK TAF 2018/01/16 06:15 UTC NOAA

TAF EGPK 160459Z 1606/1706 28015KT 9999 FEW010CB SCT020
TEMPO 1606/1706 30020G30KT 2000 SHRASN BKN006 PROB30
TEMPO 1606/1706 28026G40KT 1200 SHSN +TSGS BKN003


Example: see airport list